sensor_id;sensor_type;location;lat;lon;timestamp;pressure;altitude;pressure_sealevel;temperature;humidity
70690;BME280;58267;51.156;17.044;2023-05-20T00:01:39;101246.04;;;16.71;41.37
70690;BME280;58267;51.156;17.044;2023-05-20T00:04:04;101244.83;;;16.79;41.22
70690;BME280;58267;51.156;17.044;2023-05-20T00:06:29;101241.56;;;16.78;41.15
70690;BME280;58267;51.156;17.044;2023-05-20T00:08:55;101241.20;;;16.88;41.01
70690;BME280;58267;51.156;17.044;2023-05-20T00:11:21;101235.22;;;16.76;41.32
70690;BME280;58267;51.156;17.044;2023-05-20T00:13:46;101235.18;;;16.71;41.38
70690;BME280;58267;51.156;17.044;2023-05-20T00:16:12;101234.75;;;16.47;41.71
70690;BME280;58267;51.156;17.044;2023-05-20T00:18:37;101239.20;;;16.64;41.39
70690;BME280;58267;51.156;17.044;2023-05-20T00:21:03;101240.45;;;16.61;41.43
70690;BME280;58267;51.156;17.044;2023-05-20T00:23:28;101242.86;;;16.65;41.48
70690;BME280;58267;51.156;17.044;2023-05-20T00:25:54;101242.14;;;16.69;41.45
70690;BME280;58267;51.156;17.044;2023-05-20T00:28:19;101245.71;;;16.62;41.65
70690;BME280;58267;51.156;17.044;2023-05-20T00:30:46;101244.58;;;16.90;41.71
70690;BME280;58267;51.156;17.044;2023-05-20T00:33:11;101244.93;;;16.48;41.93
70690;BME280;58267;51.156;17.044;2023-05-20T00:35:36;101241.18;;;16.28;41.83
70690;BME280;58267;51.156;17.044;2023-05-20T00:38:02;101243.44;;;16.45;41.76
70690;BME280;58267;51.156;17.044;2023-05-20T00:40:27;101238.09;;;16.37;41.65
70690;BME280;58267;51.156;17.044;2023-05-20T00:42:53;101234.06;;;16.22;41.78
70690;BME280;58267;51.156;17.044;2023-05-20T00:45:18;101234.14;;;16.22;41.65
70690;BME280;58267;51.156;17.044;2023-05-20T00:47:44;101238.13;;;16.08;41.50
70690;BME280;58267;51.156;17.044;2023-05-20T00:50:10;101239.36;;;16.24;41.63
70690;BME280;58267;51.156;17.044;2023-05-20T00:52:36;101238.77;;;16.25;41.51
70690;BME280;58267;51.156;17.044;2023-05-20T00:55:00;101235.70;;;16.56;41.49
70690;BME280;58267;51.156;17.044;2023-05-20T00:57:26;101235.17;;;16.09;41.81
70690;BME280;58267;51.156;17.044;2023-05-20T00:59:52;101232.69;;;16.33;41.66
70690;BME280;58267;51.156;17.044;2023-05-20T01:02:17;101234.03;;;16.15;41.45
70690;BME280;58267;51.156;17.044;2023-05-20T01:04:42;101234.49;;;16.43;41.33
70690;BME280;58267;51.156;17.044;2023-05-20T01:07:07;101230.81;;;16.32;41.51
70690;BME280;58267;51.156;17.044;2023-05-20T01:09:33;101231.00;;;16.18;41.66
70690;BME280;58267;51.156;17.044;2023-05-20T01:12:04;101233.62;;;16.26;41.65
70690;BME280;58267;51.156;17.044;2023-05-20T01:14:25;101231.20;;;16.19;41.56
70690;BME280;58267;51.156;17.044;2023-05-20T01:16:49;101230.88;;;15.91;41.62
70690;BME280;58267;51.156;17.044;2023-05-20T01:19:21;101228.75;;;16.17;41.55
70690;BME280;58267;51.156;17.044;2023-05-20T01:21:43;101228.94;;;15.90;41.44
70690;BME280;58267;51.156;17.044;2023-05-20T01:24:06;101223.86;;;15.81;41.60
70690;BME280;58267;51.156;17.044;2023-05-20T01:26:32;101225.56;;;16.16;41.82
70690;BME280;58267;51.156;17.044;2023-05-20T01:28:57;101224.94;;;16.08;41.53
70690;BME280;58267;51.156;17.044;2023-05-20T01:31:25;101226.21;;;16.06;41.52
70690;BME280;58267;51.156;17.044;2023-05-20T01:33:52;101226.39;;;16.09;41.39
70690;BME280;58267;51.156;17.044;2023-05-20T01:36:14;101228.70;;;16.38;41.33
70690;BME280;58267;51.156;17.044;2023-05-20T01:38:41;101230.63;;;15.76;41.34
70690;BME280;58267;51.156;17.044;2023-05-20T01:41:05;101233.02;;;16.12;41.36
70690;BME280;58267;51.156;17.044;2023-05-20T01:43:30;101233.12;;;15.71;41.44
70690;BME280;58267;51.156;17.044;2023-05-20T01:45:56;101228.27;;;16.03;41.24
70690;BME280;58267;51.156;17.044;2023-05-20T01:48:21;101224.23;;;16.01;41.34
70690;BME280;58267;51.156;17.044;2023-05-20T01:50:46;101224.51;;;16.19;41.36
70690;BME280;58267;51.156;17.044;2023-05-20T01:53:12;101222.82;;;16.09;41.44
70690;BME280;58267;51.156;17.044;2023-05-20T01:55:37;101226.45;;;15.87;41.93
70690;BME280;58267;51.156;17.044;2023-05-20T01:58:03;101227.47;;;15.82;41.56
70690;BME280;58267;51.156;17.044;2023-05-20T02:00:28;101229.45;;;15.84;41.53
70690;BME280;58267;51.156;17.044;2023-05-20T02:02:53;101228.86;;;15.61;41.40
70690;BME280;58267;51.156;17.044;2023-05-20T02:05:19;101229.38;;;16.13;41.28
70690;BME280;58267;51.156;17.044;2023-05-20T02:07:44;101228.06;;;15.83;41.84
70690;BME280;58267;51.156;17.044;2023-05-20T02:10:10;101225.37;;;15.79;41.63
70690;BME280;58267;51.156;17.044;2023-05-20T02:12:36;101228.73;;;15.98;41.65
70690;BME280;58267;51.156;17.044;2023-05-20T02:15:01;101232.28;;;16.12;41.49
70690;BME280;58267;51.156;17.044;2023-05-20T02:17:26;101233.87;;;15.70;41.97
70690;BME280;58267;51.156;17.044;2023-05-20T02:19:51;101232.76;;;16.09;41.37
70690;BME280;58267;51.156;17.044;2023-05-20T02:22:17;101232.79;;;15.96;41.28
70690;BME280;58267;51.156;17.044;2023-05-20T02:24:42;101234.33;;;16.19;40.92
70690;BME280;58267;51.156;17.044;2023-05-20T02:27:07;101236.55;;;16.27;41.23
70690;BME280;58267;51.156;17.044;2023-05-20T02:29:33;101233.73;;;16.05;41.19
70690;BME280;58267;51.156;17.044;2023-05-20T02:31:58;101233.07;;;16.03;41.27
70690;BME280;58267;51.156;17.044;2023-05-20T02:34:26;101234.82;;;15.96;41.41
70690;BME280;58267;51.156;17.044;2023-05-20T02:36:50;101235.68;;;15.73;41.36
70690;BME280;58267;51.156;17.044;2023-05-20T02:39:16;101235.77;;;16.09;41.27
70690;BME280;58267;51.156;17.044;2023-05-20T02:41:42;101232.42;;;16.29;41.32
70690;BME280;58267;51.156;17.044;2023-05-20T02:44:07;101233.94;;;15.75;41.37
70690;BME280;58267;51.156;17.044;2023-05-20T02:46:33;101236.22;;;15.86;41.23
70690;BME280;58267;51.156;17.044;2023-05-20T02:48:59;101235.30;;;16.03;41.40
70690;BME280;58267;51.156;17.044;2023-05-20T02:51:24;101234.14;;;16.28;41.40
70690;BME280;58267;51.156;17.044;2023-05-20T02:53:49;101231.47;;;15.71;41.60
70690;BME280;58267;51.156;17.044;2023-05-20T02:56:14;101227.09;;;15.96;41.71
70690;BME280;58267;51.156;17.044;2023-05-20T02:58:40;101223.03;;;15.96;41.99
70690;BME280;58267;51.156;17.044;2023-05-20T03:01:05;101223.32;;;16.11;41.31
70690;BME280;58267;51.156;17.044;2023-05-20T03:03:30;101223.70;;;16.16;41.54
70690;BME280;58267;51.156;17.044;2023-05-20T03:05:55;101225.35;;;16.17;41.56
70690;BME280;58267;51.156;17.044;2023-05-20T03:08:22;101228.74;;;16.03;41.50
70690;BME280;58267;51.156;17.044;2023-05-20T03:10:46;101228.06;;;16.17;41.34
70690;BME280;58267;51.156;17.044;2023-05-20T03:13:12;101228.37;;;16.20;41.36
70690;BME280;58267;51.156;17.044;2023-05-20T03:15:38;101225.65;;;15.84;41.54
70690;BME280;58267;51.156;17.044;2023-05-20T03:18:03;101225.01;;;15.89;41.42
70690;BME280;58267;51.156;17.044;2023-05-20T03:20:28;101221.53;;;16.42;41.43
70690;BME280;58267;51.156;17.044;2023-05-20T03:22:54;101219.12;;;16.11;41.67
70690;BME280;58267;51.156;17.044;2023-05-20T03:25:21;101222.07;;;15.94;41.58
70690;BME280;58267;51.156;17.044;2023-05-20T03:27:45;101220.37;;;15.93;41.60
70690;BME280;58267;51.156;17.044;2023-05-20T03:30:11;101222.28;;;16.18;41.59
70690;BME280;58267;51.156;17.044;2023-05-20T03:32:36;101227.03;;;16.11;41.40
70690;BME280;58267;51.156;17.044;2023-05-20T03:35:01;101228.12;;;16.23;41.53
70690;BME280;58267;51.156;17.044;2023-05-20T03:37:26;101231.86;;;15.98;41.53
70690;BME280;58267;51.156;17.044;2023-05-20T03:39:52;101233.26;;;16.02;41.61
70690;BME280;58267;51.156;17.044;2023-05-20T03:42:18;101231.34;;;15.97;41.78
70690;BME280;58267;51.156;17.044;2023-05-20T03:44:43;101229.17;;;15.97;41.72
70690;BME280;58267;51.156;17.044;2023-05-20T03:47:08;101232.67;;;16.20;41.73
70690;BME280;58267;51.156;17.044;2023-05-20T03:49:34;101234.59;;;16.13;41.89
70690;BME280;58267;51.156;17.044;2023-05-20T03:51:59;101238.64;;;16.10;42.04
70690;BME280;58267;51.156;17.044;2023-05-20T03:54:24;101241.90;;;15.93;41.88
70690;BME280;58267;51.156;17.044;2023-05-20T03:56:50;101245.89;;;15.86;41.99
70690;BME280;58267;51.156;17.044;2023-05-20T03:59:16;101244.97;;;16.20;41.96
70690;BME280;58267;51.156;17.044;2023-05-20T04:01:41;101244.23;;;16.48;41.85
70690;BME280;58267;51.156;17.044;2023-05-20T04:04:07;101242.64;;;16.30;41.70
70690;BME280;58267;51.156;17.044;2023-05-20T04:06:32;101243.76;;;16.27;41.81
70690;BME280;58267;51.156;17.044;2023-05-20T04:08:58;101247.06;;;16.40;41.49
70690;BME280;58267;51.156;17.044;2023-05-20T04:11:23;101247.77;;;16.25;41.85
70690;BME280;58267;51.156;17.044;2023-05-20T04:13:50;101251.10;;;16.44;41.86
70690;BME280;58267;51.156;17.044;2023-05-20T04:16:15;101250.66;;;16.04;41.76
70690;BME280;58267;51.156;17.044;2023-05-20T04:18:41;101255.67;;;16.23;41.82
70690;BME280;58267;51.156;17.044;2023-05-20T04:21:06;101257.27;;;16.13;41.86
70690;BME280;58267;51.156;17.044;2023-05-20T04:23:32;101257.60;;;16.30;41.66
70690;BME280;58267;51.156;17.044;2023-05-20T04:25:58;101260.11;;;16.29;41.69
70690;BME280;58267;51.156;17.044;2023-05-20T04:28:23;101259.87;;;15.99;41.83
70690;BME280;58267;51.156;17.044;2023-05-20T04:30:48;101257.74;;;16.25;41.85
70690;BME280;58267;51.156;17.044;2023-05-20T04:33:14;101257.88;;;16.38;41.71
70690;BME280;58267;51.156;17.044;2023-05-20T04:35:39;101258.18;;;16.22;41.60
70690;BME280;58267;51.156;17.044;2023-05-20T04:38:04;101255.46;;;16.32;41.94
70690;BME280;58267;51.156;17.044;2023-05-20T04:40:29;101251.69;;;16.33;41.87
70690;BME280;58267;51.156;17.044;2023-05-20T04:42:55;101254.50;;;16.25;41.99
70690;BME280;58267;51.156;17.044;2023-05-20T04:45:20;101253.98;;;16.03;42.02
70690;BME280;58267;51.156;17.044;2023-05-20T04:47:46;101253.92;;;16.31;41.97
70690;BME280;58267;51.156;17.044;2023-05-20T04:50:12;101253.25;;;16.31;41.62
70690;BME280;58267;51.156;17.044;2023-05-20T04:52:36;101253.14;;;16.16;41.94
70690;BME280;58267;51.156;17.044;2023-05-20T04:55:03;101254.43;;;16.19;41.80
70690;BME280;58267;51.156;17.044;2023-05-20T04:57:28;101251.91;;;16.55;41.59
70690;BME280;58267;51.156;17.044;2023-05-20T04:59:53;101250.31;;;16.41;41.94
70690;BME280;58267;51.156;17.044;2023-05-20T05:02:18;101249.20;;;16.07;42.08
70690;BME280;58267;51.156;17.044;2023-05-20T05:04:43;101244.02;;;16.07;41.95
70690;BME280;58267;51.156;17.044;2023-05-20T05:07:09;101243.08;;;16.03;42.06
70690;BME280;58267;51.156;17.044;2023-05-20T05:09:35;101243.61;;;16.41;42.00
70690;BME280;58267;51.156;17.044;2023-05-20T05:12:00;101241.95;;;16.40;42.07
70690;BME280;58267;51.156;17.044;2023-05-20T05:14:26;101242.34;;;16.78;41.82
70690;BME280;58267;51.156;17.044;2023-05-20T05:16:51;101240.12;;;16.57;41.74
70690;BME280;58267;51.156;17.044;2023-05-20T05:19:17;101239.85;;;16.44;41.91
70690;BME280;58267;51.156;17.044;2023-05-20T05:21:42;101238.33;;;16.35;41.96
70690;BME280;58267;51.156;17.044;2023-05-20T05:24:07;101240.38;;;16.15;41.93
70690;BME280;58267;51.156;17.044;2023-05-20T05:26:33;101242.34;;;16.39;41.76
70690;BME280;58267;51.156;17.044;2023-05-20T05:28:59;101244.84;;;16.21;41.86
70690;BME280;58267;51.156;17.044;2023-05-20T05:31:24;101250.53;;;16.18;41.33
70690;BME280;58267;51.156;17.044;2023-05-20T05:33:50;101255.84;;;16.15;41.58
70690;BME280;58267;51.156;17.044;2023-05-20T05:36:15;101256.29;;;16.15;41.60
70690;BME280;58267;51.156;17.044;2023-05-20T05:38:41;101258.91;;;16.28;41.56
70690;BME280;58267;51.156;17.044;2023-05-20T05:41:06;101261.13;;;16.33;41.45
70690;BME280;58267;51.156;17.044;2023-05-20T05:43:32;101258.30;;;16.75;41.27
70690;BME280;58267;51.156;17.044;2023-05-20T05:45:58;101259.49;;;16.63;41.02
70690;BME280;58267;51.156;17.044;2023-05-20T05:48:23;101253.26;;;16.33;41.65
70690;BME280;58267;51.156;17.044;2023-05-20T05:50:49;101252.82;;;16.43;41.34
70690;BME280;58267;51.156;17.044;2023-05-20T05:53:15;101255.22;;;16.79;41.02
70690;BME280;58267;51.156;17.044;2023-05-20T05:55:40;101255.30;;;16.58;41.18
70690;BME280;58267;51.156;17.044;2023-05-20T05:58:06;101257.25;;;16.66;41.04
70690;BME280;58267;51.156;17.044;2023-05-20T06:00:32;101251.98;;;16.20;41.46
70690;BME280;58267;51.156;17.044;2023-05-20T06:02:57;101252.41;;;16.27;41.43
70690;BME280;58267;51.156;17.044;2023-05-20T06:05:23;101253.55;;;16.82;40.94
70690;BME280;58267;51.156;17.044;2023-05-20T06:07:48;101257.68;;;16.51;41.18
70690;BME280;58267;51.156;17.044;2023-05-20T06:10:14;101263.05;;;16.83;40.67
70690;BME280;58267;51.156;17.044;2023-05-20T06:12:39;101263.28;;;16.68;41.04
70690;BME280;58267;51.156;17.044;2023-05-20T06:15:05;101260.95;;;16.68;41.05
70690;BME280;58267;51.156;17.044;2023-05-20T06:17:30;101262.09;;;16.45;41.28
70690;BME280;58267;51.156;17.044;2023-05-20T06:19:55;101265.00;;;16.66;41.49
70690;BME280;58267;51.156;17.044;2023-05-20T06:22:20;101263.65;;;16.25;41.53
70690;BME280;58267;51.156;17.044;2023-05-20T06:24:46;101268.30;;;16.36;41.31
70690;BME280;58267;51.156;17.044;2023-05-20T06:27:12;101265.38;;;16.43;41.04
70690;BME280;58267;51.156;17.044;2023-05-20T06:29:37;101267.20;;;16.52;41.08
70690;BME280;58267;51.156;17.044;2023-05-20T06:32:04;101262.30;;;16.28;41.29
70690;BME280;58267;51.156;17.044;2023-05-20T06:34:29;101261.60;;;16.14;42.01
70690;BME280;58267;51.156;17.044;2023-05-20T06:36:54;101257.04;;;16.04;41.72
70690;BME280;58267;51.156;17.044;2023-05-20T06:39:19;101256.93;;;16.42;41.90
70690;BME280;58267;51.156;17.044;2023-05-20T06:41:45;101258.46;;;16.13;42.15
70690;BME280;58267;51.156;17.044;2023-05-20T06:44:10;101258.25;;;16.04;42.26
70690;BME280;58267;51.156;17.044;2023-05-20T06:46:36;101262.61;;;16.36;41.77
70690;BME280;58267;51.156;17.044;2023-05-20T06:49:02;101268.00;;;16.56;41.27
70690;BME280;58267;51.156;17.044;2023-05-20T06:51:27;101272.82;;;16.77;41.17
70690;BME280;58267;51.156;17.044;2023-05-20T06:53:53;101274.62;;;16.24;41.62
70690;BME280;58267;51.156;17.044;2023-05-20T06:56:18;101278.87;;;16.34;41.47
70690;BME280;58267;51.156;17.044;2023-05-20T06:58:43;101278.86;;;16.46;41.28
70690;BME280;58267;51.156;17.044;2023-05-20T07:01:09;101271.97;;;16.32;41.19
70690;BME280;58267;51.156;17.044;2023-05-20T07:03:34;101264.66;;;16.46;41.30
70690;BME280;58267;51.156;17.044;2023-05-20T07:06:00;101267.80;;;16.08;41.32
70690;BME280;58267;51.156;17.044;2023-05-20T07:08:26;101265.34;;;16.24;41.03
70690;BME280;58267;51.156;17.044;2023-05-20T07:10:54;101266.68;;;16.32;40.91
70690;BME280;58267;51.156;17.044;2023-05-20T07:13:17;101262.20;;;16.26;40.82
70690;BME280;58267;51.156;17.044;2023-05-20T07:15:45;101256.80;;;16.54;40.98
70690;BME280;58267;51.156;17.044;2023-05-20T07:18:08;101259.49;;;16.61;40.93
70690;BME280;58267;51.156;17.044;2023-05-20T07:20:34;101264.12;;;16.47;40.74
70690;BME280;58267;51.156;17.044;2023-05-20T07:22:59;101261.74;;;16.75;40.37
70690;BME280;58267;51.156;17.044;2023-05-20T07:25:25;101264.98;;;16.71;40.52
70690;BME280;58267;51.156;17.044;2023-05-20T07:27:50;101262.86;;;16.64;40.58
70690;BME280;58267;51.156;17.044;2023-05-20T07:30:16;101260.76;;;16.37;40.67
70690;BME280;58267;51.156;17.044;2023-05-20T07:32:42;101264.50;;;16.59;40.48
70690;BME280;58267;51.156;17.044;2023-05-20T07:35:08;101263.33;;;16.52;40.45
70690;BME280;58267;51.156;17.044;2023-05-20T07:37:33;101262.01;;;16.89;40.16
70690;BME280;58267;51.156;17.044;2023-05-20T07:39:59;101265.80;;;17.02;39.98
70690;BME280;58267;51.156;17.044;2023-05-20T07:42:25;101265.97;;;16.76;40.08
70690;BME280;58267;51.156;17.044;2023-05-20T07:44:50;101257.58;;;16.99;39.95
70690;BME280;58267;51.156;17.044;2023-05-20T07:47:15;101252.60;;;17.27;39.76
70690;BME280;58267;51.156;17.044;2023-05-20T07:49:41;101251.65;;;17.17;39.56
70690;BME280;58267;51.156;17.044;2023-05-20T07:52:06;101247.69;;;17.14;39.56
70690;BME280;58267;51.156;17.044;2023-05-20T07:54:34;101252.83;;;17.64;39.49
70690;BME280;58267;51.156;17.044;2023-05-20T07:56:57;101257.21;;;17.36;39.46
70690;BME280;58267;51.156;17.044;2023-05-20T07:59:23;101255.67;;;17.53;39.24
70690;BME280;58267;51.156;17.044;2023-05-20T08:01:48;101250.75;;;17.34;39.34
70690;BME280;58267;51.156;17.044;2023-05-20T08:04:13;101246.66;;;17.46;39.26
70690;BME280;58267;51.156;17.044;2023-05-20T08:06:39;101244.04;;;17.60;39.12
70690;BME280;58267;51.156;17.044;2023-05-20T08:09:04;101241.41;;;17.60;39.00
70690;BME280;58267;51.156;17.044;2023-05-20T08:11:30;101236.01;;;17.78;39.10
70690;BME280;58267;51.156;17.044;2023-05-20T08:13:56;101233.09;;;18.15;38.65
70690;BME280;58267;51.156;17.044;2023-05-20T08:16:21;101237.56;;;18.08;38.50
70690;BME280;58267;51.156;17.044;2023-05-20T08:18:47;101231.97;;;17.69;38.80
70690;BME280;58267;51.156;17.044;2023-05-20T08:21:12;101234.43;;;18.08;38.60
70690;BME280;58267;51.156;17.044;2023-05-20T08:23:38;101224.63;;;17.95;38.74
70690;BME280;58267;51.156;17.044;2023-05-20T08:26:03;101222.58;;;17.58;38.96
70690;BME280;58267;51.156;17.044;2023-05-20T08:28:28;101216.00;;;17.82;38.70
70690;BME280;58267;51.156;17.044;2023-05-20T08:30:53;101213.20;;;18.14;38.60
70690;BME280;58267;51.156;17.044;2023-05-20T08:33:18;101214.32;;;17.63;38.83
70690;BME280;58267;51.156;17.044;2023-05-20T08:35:44;101214.46;;;18.29;38.10
70690;BME280;58267;51.156;17.044;2023-05-20T08:38:09;101207.10;;;18.24;38.24
70690;BME280;58267;51.156;17.044;2023-05-20T08:40:35;101202.79;;;18.14;38.47
70690;BME280;58267;51.156;17.044;2023-05-20T08:43:01;101202.09;;;18.34;38.38
70690;BME280;58267;51.156;17.044;2023-05-20T08:45:26;101200.75;;;18.26;38.06
70690;BME280;58267;51.156;17.044;2023-05-20T08:47:51;101201.52;;;18.09;38.16
70690;BME280;58267;51.156;17.044;2023-05-20T08:50:17;101201.10;;;18.66;37.66
70690;BME280;58267;51.156;17.044;2023-05-20T08:52:43;101205.00;;;18.51;37.72
70690;BME280;58267;51.156;17.044;2023-05-20T08:55:10;101199.88;;;18.96;37.03
70690;BME280;58267;51.156;17.044;2023-05-20T08:57:34;101203.09;;;18.95;36.99
70690;BME280;58267;51.156;17.044;2023-05-20T08:59:58;101204.35;;;19.33;36.72
70690;BME280;58267;51.156;17.044;2023-05-20T09:02:24;101203.41;;;19.29;36.75
70690;BME280;58267;51.156;17.044;2023-05-20T09:04:49;101203.94;;;19.30;35.93
70690;BME280;58267;51.156;17.044;2023-05-20T09:09:41;101197.04;;;19.40;35.86
70690;BME280;58267;51.156;17.044;2023-05-20T09:12:06;101198.88;;;19.81;35.17
70690;BME280;58267;51.156;17.044;2023-05-20T09:14:32;101194.73;;;19.52;35.60
70690;BME280;58267;51.156;17.044;2023-05-20T09:16:58;101199.29;;;19.70;35.83
70690;BME280;58267;51.156;17.044;2023-05-20T09:19:24;101202.99;;;19.82;35.72
70690;BME280;58267;51.156;17.044;2023-05-20T09:21:51;101206.98;;;20.02;35.69
70690;BME280;58267;51.156;17.044;2023-05-20T09:24:14;101209.10;;;20.10;35.19
70690;BME280;58267;51.156;17.044;2023-05-20T09:26:39;101211.27;;;20.33;34.43
70690;BME280;58267;51.156;17.044;2023-05-20T09:29:05;101207.56;;;20.41;33.95
70690;BME280;58267;51.156;17.044;2023-05-20T09:31:31;101199.99;;;20.94;33.70
70690;BME280;58267;51.156;17.044;2023-05-20T09:33:56;101195.70;;;20.33;34.50
70690;BME280;58267;51.156;17.044;2023-05-20T09:36:22;101194.82;;;20.71;34.58
70690;BME280;58267;51.156;17.044;2023-05-20T09:38:51;101187.53;;;20.35;34.50
70690;BME280;58267;51.156;17.044;2023-05-20T09:41:14;101185.11;;;20.60;34.57
70690;BME280;58267;51.156;17.044;2023-05-20T09:43:39;101181.26;;;20.45;35.26
70690;BME280;58267;51.156;17.044;2023-05-20T09:46:05;101177.80;;;20.30;35.13
70690;BME280;58267;51.156;17.044;2023-05-20T09:48:30;101176.10;;;19.55;35.32
70690;BME280;58267;51.156;17.044;2023-05-20T09:50:57;101175.71;;;20.07;35.16
70690;BME280;58267;51.156;17.044;2023-05-20T09:53:24;101178.94;;;20.33;35.00
70690;BME280;58267;51.156;17.044;2023-05-20T09:55:49;101176.02;;;20.23;35.31
70690;BME280;58267;51.156;17.044;2023-05-20T09:58:15;101177.03;;;20.24;34.97
70690;BME280;58267;51.156;17.044;2023-05-20T10:00:39;101173.77;;;20.30;34.85
70690;BME280;58267;51.156;17.044;2023-05-20T10:03:04;101171.22;;;20.25;34.76
70690;BME280;58267;51.156;17.044;2023-05-20T10:05:36;101169.55;;;20.31;35.05
70690;BME280;58267;51.156;17.044;2023-05-20T10:10:28;101166.60;;;21.86;34.66
70690;BME280;58267;51.156;17.044;2023-05-20T10:12:53;101158.44;;;21.92;33.76
70690;BME280;58267;51.156;17.044;2023-05-20T10:15:20;101161.73;;;22.14;33.16
70690;BME280;58267;51.156;17.044;2023-05-20T10:17:43;101162.99;;;22.81;32.39
70690;BME280;58267;51.156;17.044;2023-05-20T10:20:07;101163.68;;;22.72;32.05
70690;BME280;58267;51.156;17.044;2023-05-20T10:22:29;101166.73;;;23.08;31.94
70690;BME280;58267;51.156;17.044;2023-05-20T10:24:58;101174.70;;;22.90;31.92
70690;BME280;58267;51.156;17.044;2023-05-20T10:27:20;101170.63;;;23.00;31.76
70690;BME280;58267;51.156;17.044;2023-05-20T10:29:49;101169.84;;;23.23;31.58
70690;BME280;58267;51.156;17.044;2023-05-20T10:32:11;101163.45;;;23.48;31.53
70690;BME280;58267;51.156;17.044;2023-05-20T10:34:45;101159.76;;;22.86;31.43
70690;BME280;58267;51.156;17.044;2023-05-20T10:37:03;101158.33;;;23.50;31.50
70690;BME280;58267;51.156;17.044;2023-05-20T10:39:28;101154.78;;;23.82;31.43
70690;BME280;58267;51.156;17.044;2023-05-20T10:41:54;101152.67;;;23.36;31.53
70690;BME280;58267;51.156;17.044;2023-05-20T10:44:18;101143.86;;;23.65;31.35
70690;BME280;58267;51.156;17.044;2023-05-20T10:46:43;101140.48;;;23.50;31.50
70690;BME280;58267;51.156;17.044;2023-05-20T10:49:16;101138.75;;;23.36;31.33
70690;BME280;58267;51.156;17.044;2023-05-20T10:51:35;101133.48;;;23.58;31.01
70690;BME280;58267;51.156;17.044;2023-05-20T10:54:01;101133.84;;;23.30;31.35
70690;BME280;58267;51.156;17.044;2023-05-20T10:56:26;101137.50;;;23.27;31.27
70690;BME280;58267;51.156;17.044;2023-05-20T10:58:53;101138.52;;;23.28;31.37
70690;BME280;58267;51.156;17.044;2023-05-20T11:01:18;101138.95;;;23.58;30.82
70690;BME280;58267;51.156;17.044;2023-05-20T11:03:44;101131.36;;;23.71;30.84
70690;BME280;58267;51.156;17.044;2023-05-20T11:06:12;101128.86;;;23.75;30.76
70690;BME280;58267;51.156;17.044;2023-05-20T11:08:34;101128.31;;;23.97;30.71
70690;BME280;58267;51.156;17.044;2023-05-20T11:11:00;101129.06;;;23.40;30.80
70690;BME280;58267;51.156;17.044;2023-05-20T11:13:25;101126.51;;;23.41;31.07
70690;BME280;58267;51.156;17.044;2023-05-20T11:15:51;101128.60;;;23.51;31.13
70690;BME280;58267;51.156;17.044;2023-05-20T11:18:17;101124.63;;;23.40;30.94
70690;BME280;58267;51.156;17.044;2023-05-20T11:20:42;101122.12;;;23.79;30.87
70690;BME280;58267;51.156;17.044;2023-05-20T11:23:12;101119.77;;;23.85;30.73
70690;BME280;58267;51.156;17.044;2023-05-20T11:25:34;101114.68;;;23.86;30.68
70690;BME280;58267;51.156;17.044;2023-05-20T11:27:59;101109.40;;;23.93;30.57
70690;BME280;58267;51.156;17.044;2023-05-20T11:30:24;101105.19;;;23.72;30.56
70690;BME280;58267;51.156;17.044;2023-05-20T11:32:56;101102.00;;;23.50;30.73
70690;BME280;58267;51.156;17.044;2023-05-20T11:35:21;101103.31;;;23.83;30.63
70690;BME280;58267;51.156;17.044;2023-05-20T11:37:42;101105.87;;;23.85;30.67
70690;BME280;58267;51.156;17.044;2023-05-20T11:40:08;101109.24;;;23.91;30.47
70690;BME280;58267;51.156;17.044;2023-05-20T11:42:33;101111.32;;;23.60;30.61
70690;BME280;58267;51.156;17.044;2023-05-20T11:44:59;101109.54;;;23.66;30.59
70690;BME280;58267;51.156;17.044;2023-05-20T11:47:24;101110.17;;;23.98;30.45
70690;BME280;58267;51.156;17.044;2023-05-20T11:49:49;101109.42;;;23.28;30.70
70690;BME280;58267;51.156;17.044;2023-05-20T11:52:14;101112.11;;;23.49;30.80
70690;BME280;58267;51.156;17.044;2023-05-20T11:54:40;101116.71;;;23.27;31.52
70690;BME280;58267;51.156;17.044;2023-05-20T11:57:05;101115.09;;;23.46;31.09
70690;BME280;58267;51.156;17.044;2023-05-20T11:59:30;101117.92;;;23.49;31.25
70690;BME280;58267;51.156;17.044;2023-05-20T12:01:56;101118.74;;;23.49;31.26
70690;BME280;58267;51.156;17.044;2023-05-20T12:04:21;101115.13;;;23.53;31.22
70690;BME280;58267;51.156;17.044;2023-05-20T12:06:46;101113.67;;;23.61;31.13
70690;BME280;58267;51.156;17.044;2023-05-20T12:09:12;101109.26;;;23.26;31.02
70690;BME280;58267;51.156;17.044;2023-05-20T12:11:38;101103.35;;;23.58;30.88
70690;BME280;58267;51.156;17.044;2023-05-20T12:14:03;101102.79;;;23.59;31.19
70690;BME280;58267;51.156;17.044;2023-05-20T12:16:29;101101.01;;;23.69;31.07
70690;BME280;58267;51.156;17.044;2023-05-20T12:18:54;101099.06;;;23.68;31.09
70690;BME280;58267;51.156;17.044;2023-05-20T12:21:19;101098.96;;;23.73;30.96
70690;BME280;58267;51.156;17.044;2023-05-20T12:23:45;101097.23;;;23.95;30.78
70690;BME280;58267;51.156;17.044;2023-05-20T12:26:10;101099.03;;;23.87;30.89
70690;BME280;58267;51.156;17.044;2023-05-20T12:28:36;101093.81;;;23.83;30.94
70690;BME280;58267;51.156;17.044;2023-05-20T12:31:01;101091.76;;;23.84;30.94
70690;BME280;58267;51.156;17.044;2023-05-20T12:33:27;101087.09;;;23.85;30.91
70690;BME280;58267;51.156;17.044;2023-05-20T12:35:52;101083.98;;;23.93;30.82